sensor_id;sensor_type;location;lat;lon;timestamp;pressure;altitude;pressure_sealevel;temperature;humidity
60832;BME280;46665;51.558;-0.448;2024-03-25T00:01:33;100270.56;;;5.55;100.00
60832;BME280;46665;51.558;-0.448;2024-03-25T00:04:18;100256.78;;;5.57;100.00
60832;BME280;46665;51.558;-0.448;2024-03-25T00:07:04;100258.16;;;5.59;100.00
60832;BME280;46665;51.558;-0.448;2024-03-25T00:09:48;100247.69;;;5.63;100.00
60832;BME280;46665;51.558;-0.448;2024-03-25T00:12:32;100246.09;;;5.67;100.00
60832;BME280;46665;51.558;-0.448;2024-03-25T00:15:16;100232.34;;;5.69;100.00
60832;BME280;46665;51.558;-0.448;2024-03-25T00:18:00;100237.53;;;5.75;100.00
60832;BME280;46665;51.558;-0.448;2024-03-25T00:20:45;100238.09;;;5.77;100.00
60832;BME280;46665;51.558;-0.448;2024-03-25T00:23:29;100220.00;;;5.78;100.00
60832;BME280;46665;51.558;-0.448;2024-03-25T00:26:13;100229.69;;;5.74;100.00
60832;BME280;46665;51.558;-0.448;2024-03-25T00:28:57;100225.56;;;5.66;100.00
60832;BME280;46665;51.558;-0.448;2024-03-25T00:31:41;100215.81;;;5.60;100.00
60832;BME280;46665;51.558;-0.448;2024-03-25T00:34:25;100216.66;;;5.65;100.00
60832;BME280;46665;51.558;-0.448;2024-03-25T00:37:09;100207.19;;;5.63;100.00
60832;BME280;46665;51.558;-0.448;2024-03-25T00:39:53;100198.84;;;5.70;100.00
60832;BME280;46665;51.558;-0.448;2024-03-25T00:42:37;100191.88;;;5.74;100.00
60832;BME280;46665;51.558;-0.448;2024-03-25T00:45:21;100188.19;;;5.85;100.00
60832;BME280;46665;51.558;-0.448;2024-03-25T00:48:05;100189.28;;;5.89;100.00
60832;BME280;46665;51.558;-0.448;2024-03-25T00:50:49;100191.22;;;5.94;100.00
60832;BME280;46665;51.558;-0.448;2024-03-25T00:53:33;100199.78;;;5.85;100.00
60832;BME280;46665;51.558;-0.448;2024-03-25T00:56:17;100197.56;;;5.72;100.00
60832;BME280;46665;51.558;-0.448;2024-03-25T00:59:01;100185.88;;;5.67;100.00
60832;BME280;46665;51.558;-0.448;2024-03-25T01:01:49;100184.53;;;5.64;100.00
60832;BME280;46665;51.558;-0.448;2024-03-25T01:04:33;100177.22;;;5.64;100.00
60832;BME280;46665;51.558;-0.448;2024-03-25T01:07:18;100176.72;;;5.68;100.00
60832;BME280;46665;51.558;-0.448;2024-03-25T01:10:02;100166.47;;;5.70;100.00
60832;BME280;46665;51.558;-0.448;2024-03-25T01:12:45;100166.22;;;5.71;100.00
60832;BME280;46665;51.558;-0.448;2024-03-25T01:15:29;100157.31;;;5.71;100.00
60832;BME280;46665;51.558;-0.448;2024-03-25T01:18:13;100159.75;;;5.72;100.00
60832;BME280;46665;51.558;-0.448;2024-03-25T01:20:57;100154.63;;;5.76;100.00
60832;BME280;46665;51.558;-0.448;2024-03-25T01:23:41;100154.38;;;5.77;100.00
60832;BME280;46665;51.558;-0.448;2024-03-25T01:26:25;100150.56;;;5.73;100.00
60832;BME280;46665;51.558;-0.448;2024-03-25T01:29:09;100153.81;;;5.70;100.00
60832;BME280;46665;51.558;-0.448;2024-03-25T01:31:53;100143.22;;;5.63;100.00
60832;BME280;46665;51.558;-0.448;2024-03-25T01:34:37;100142.44;;;5.68;100.00
60832;BME280;46665;51.558;-0.448;2024-03-25T01:37:21;100143.50;;;5.67;100.00
60832;BME280;46665;51.558;-0.448;2024-03-25T01:40:06;100142.44;;;5.68;100.00
60832;BME280;46665;51.558;-0.448;2024-03-25T01:45:41;100124.03;;;5.55;100.00
60832;BME280;46665;51.558;-0.448;2024-03-25T01:48:25;100118.63;;;5.55;100.00
60832;BME280;46665;51.558;-0.448;2024-03-25T01:51:11;100098.06;;;5.49;100.00
60832;BME280;46665;51.558;-0.448;2024-03-25T01:53:58;100096.44;;;5.48;100.00
60832;BME280;46665;51.558;-0.448;2024-03-25T01:56:43;100092.66;;;5.49;100.00
60832;BME280;46665;51.558;-0.448;2024-03-25T01:59:28;100086.22;;;5.50;100.00
60832;BME280;46665;51.558;-0.448;2024-03-25T02:02:12;100083.25;;;5.56;100.00
60832;BME280;46665;51.558;-0.448;2024-03-25T02:04:57;100079.19;;;5.54;100.00
60832;BME280;46665;51.558;-0.448;2024-03-25T02:07:42;100078.09;;;5.50;100.00
60832;BME280;46665;51.558;-0.448;2024-03-25T02:10:26;100061.84;;;5.39;100.00
60832;BME280;46665;51.558;-0.448;2024-03-25T02:13:11;100058.84;;;5.36;100.00
60832;BME280;46665;51.558;-0.448;2024-03-25T02:15:56;100069.38;;;5.32;100.00
60832;BME280;46665;51.558;-0.448;2024-03-25T02:18:40;100074.19;;;5.30;100.00
60832;BME280;46665;51.558;-0.448;2024-03-25T02:21:24;100080.16;;;5.32;100.00
60832;BME280;46665;51.558;-0.448;2024-03-25T02:24:09;100060.16;;;5.28;100.00
60832;BME280;46665;51.558;-0.448;2024-03-25T02:26:53;100046.94;;;5.27;100.00
60832;BME280;46665;51.558;-0.448;2024-03-25T02:29:37;100038.88;;;5.32;100.00
60832;BME280;46665;51.558;-0.448;2024-03-25T02:32:21;100033.22;;;5.38;100.00
60832;BME280;46665;51.558;-0.448;2024-03-25T02:35:07;100028.94;;;5.42;100.00
60832;BME280;46665;51.558;-0.448;2024-03-25T02:37:54;100035.94;;;5.38;100.00
60832;BME280;46665;51.558;-0.448;2024-03-25T02:40:38;100036.50;;;5.40;100.00
60832;BME280;46665;51.558;-0.448;2024-03-25T02:43:22;100027.84;;;5.38;100.00
60832;BME280;46665;51.558;-0.448;2024-03-25T02:46:06;100027.84;;;5.38;100.00
60832;BME280;46665;51.558;-0.448;2024-03-25T02:48:49;100021.91;;;5.41;100.00
60832;BME280;46665;51.558;-0.448;2024-03-25T02:51:33;100024.13;;;5.45;100.00
60832;BME280;46665;51.558;-0.448;2024-03-25T02:54:17;100017.38;;;5.47;100.00
60832;BME280;46665;51.558;-0.448;2024-03-25T02:57:01;100013.34;;;5.50;100.00
60832;BME280;46665;51.558;-0.448;2024-03-25T02:59:45;100014.69;;;5.47;100.00
60832;BME280;46665;51.558;-0.448;2024-03-25T03:02:29;100004.66;;;5.37;100.00
60832;BME280;46665;51.558;-0.448;2024-03-25T03:05:13;99990.59;;;5.35;100.00
60832;BME280;46665;51.558;-0.448;2024-03-25T03:07:57;99988.47;;;5.37;100.00
60832;BME280;46665;51.558;-0.448;2024-03-25T03:10:41;99987.94;;;5.40;100.00
60832;BME280;46665;51.558;-0.448;2024-03-25T03:13:25;99987.38;;;5.38;100.00
60832;BME280;46665;51.558;-0.448;2024-03-25T03:16:09;99981.94;;;5.33;100.00
60832;BME280;46665;51.558;-0.448;2024-03-25T03:18:53;99959.28;;;5.29;100.00
60832;BME280;46665;51.558;-0.448;2024-03-25T03:21:37;99969.00;;;5.35;100.00
60832;BME280;46665;51.558;-0.448;2024-03-25T03:24:21;99966.56;;;5.34;100.00
60832;BME280;46665;51.558;-0.448;2024-03-25T03:27:04;99954.41;;;5.31;100.00
60832;BME280;46665;51.558;-0.448;2024-03-25T03:29:48;99944.72;;;5.30;100.00
60832;BME280;46665;51.558;-0.448;2024-03-25T03:32:33;99950.09;;;5.30;100.00
60832;BME280;46665;51.558;-0.448;2024-03-25T03:35:17;99946.06;;;5.28;100.00
60832;BME280;46665;51.558;-0.448;2024-03-25T03:38:01;99944.13;;;5.23;100.00
60832;BME280;46665;51.558;-0.448;2024-03-25T03:40:56;99942.25;;;5.24;100.00
60832;BME280;46665;51.558;-0.448;2024-03-25T03:43:40;99944.66;;;5.20;100.00
60832;BME280;46665;51.558;-0.448;2024-03-25T03:46:24;99927.09;;;5.12;100.00
60832;BME280;46665;51.558;-0.448;2024-03-25T03:49:08;99926.28;;;5.12;100.00
60832;BME280;46665;51.558;-0.448;2024-03-25T03:51:52;99925.22;;;5.18;100.00
60832;BME280;46665;51.558;-0.448;2024-03-25T03:54:36;99924.13;;;5.19;100.00
60832;BME280;46665;51.558;-0.448;2024-03-25T03:57:20;99925.25;;;5.23;100.00
60832;BME280;46665;51.558;-0.448;2024-03-25T04:00:04;99924.72;;;5.26;100.00
60832;BME280;46665;51.558;-0.448;2024-03-25T04:02:48;99922.56;;;5.28;100.00
60832;BME280;46665;51.558;-0.448;2024-03-25T04:05:32;99919.88;;;5.28;100.00
60832;BME280;46665;51.558;-0.448;2024-03-25T04:08:16;99917.97;;;5.29;100.00
60832;BME280;46665;51.558;-0.448;2024-03-25T04:11:01;99912.91;;;5.32;100.00
60832;BME280;46665;51.558;-0.448;2024-03-25T04:13:46;99913.94;;;5.31;100.00
60832;BME280;46665;51.558;-0.448;2024-03-25T04:16:31;99910.44;;;5.31;100.00
60832;BME280;46665;51.558;-0.448;2024-03-25T04:19:15;99902.34;;;5.31;100.00
60832;BME280;46665;51.558;-0.448;2024-03-25T04:21:59;99905.34;;;5.34;100.00
60832;BME280;46665;51.558;-0.448;2024-03-25T04:24:43;99896.16;;;5.35;100.00
60832;BME280;46665;51.558;-0.448;2024-03-25T04:27:27;99893.50;;;5.40;100.00
60832;BME280;46665;51.558;-0.448;2024-03-25T04:30:11;99887.00;;;5.41;100.00
60832;BME280;46665;51.558;-0.448;2024-03-25T04:32:55;99892.97;;;5.49;100.00
60832;BME280;46665;51.558;-0.448;2024-03-25T04:35:39;99890.81;;;5.51;100.00
60832;BME280;46665;51.558;-0.448;2024-03-25T04:38:23;99885.16;;;5.52;100.00
60832;BME280;46665;51.558;-0.448;2024-03-25T04:41:07;99870.34;;;5.55;100.00
60832;BME280;46665;51.558;-0.448;2024-03-25T04:43:51;99869.25;;;5.56;100.00
60832;BME280;46665;51.558;-0.448;2024-03-25T04:46:35;99875.47;;;5.61;100.00
60832;BME280;46665;51.558;-0.448;2024-03-25T04:49:19;99860.63;;;5.64;100.00
60832;BME280;46665;51.558;-0.448;2024-03-25T04:52:06;99868.47;;;5.65;100.00
60832;BME280;46665;51.558;-0.448;2024-03-25T04:54:50;99870.88;;;5.67;100.00
60832;BME280;46665;51.558;-0.448;2024-03-25T04:57:34;99853.63;;;5.68;100.00
60832;BME280;46665;51.558;-0.448;2024-03-25T05:00:18;99854.16;;;5.70;100.00
60832;BME280;46665;51.558;-0.448;2024-03-25T05:03:02;99854.44;;;5.74;100.00
60832;BME280;46665;51.558;-0.448;2024-03-25T05:05:48;99849.03;;;5.74;100.00
60832;BME280;46665;51.558;-0.448;2024-03-25T05:08:31;99856.88;;;5.80;100.00
60832;BME280;46665;51.558;-0.448;2024-03-25T05:11:15;99846.34;;;5.84;100.00
60832;BME280;46665;51.558;-0.448;2024-03-25T05:13:59;99852.28;;;5.91;100.00
60832;BME280;46665;51.558;-0.448;2024-03-25T05:16:43;99848.53;;;5.97;100.00
60832;BME280;46665;51.558;-0.448;2024-03-25T05:19:27;99850.41;;;6.02;100.00
60832;BME280;46665;51.558;-0.448;2024-03-25T05:22:11;99846.09;;;6.06;100.00
60832;BME280;46665;51.558;-0.448;2024-03-25T05:24:55;99845.56;;;6.09;100.00
60832;BME280;46665;51.558;-0.448;2024-03-25T05:27:39;99835.31;;;6.11;100.00
60832;BME280;46665;51.558;-0.448;2024-03-25T05:30:23;99832.84;;;6.15;100.00
60832;BME280;46665;51.558;-0.448;2024-03-25T05:33:07;99834.75;;;6.14;100.00
60832;BME280;46665;51.558;-0.448;2024-03-25T05:35:51;99836.38;;;6.15;100.00
60832;BME280;46665;51.558;-0.448;2024-03-25T05:38:35;99833.69;;;6.20;100.00
60832;BME280;46665;51.558;-0.448;2024-03-25T05:41:19;99823.94;;;6.19;100.00
60832;BME280;46665;51.558;-0.448;2024-03-25T05:44:03;99834.50;;;6.26;100.00
60832;BME280;46665;51.558;-0.448;2024-03-25T05:46:47;99823.38;;;6.27;100.00
60832;BME280;46665;51.558;-0.448;2024-03-25T05:49:31;99826.63;;;6.29;100.00
60832;BME280;46665;51.558;-0.448;2024-03-25T05:52:15;99819.88;;;6.32;100.00
60832;BME280;46665;51.558;-0.448;2024-03-25T05:54:59;99824.72;;;6.35;100.00
60832;BME280;46665;51.558;-0.448;2024-03-25T05:57:43;99808.78;;;6.39;100.00
60832;BME280;46665;51.558;-0.448;2024-03-25T06:00:27;99815.25;;;6.43;100.00
60832;BME280;46665;51.558;-0.448;2024-03-25T06:03:11;99803.09;;;6.45;100.00
60832;BME280;46665;51.558;-0.448;2024-03-25T06:05:54;99797.41;;;6.47;100.00
60832;BME280;46665;51.558;-0.448;2024-03-25T06:08:38;99802.53;;;6.54;100.00
60832;BME280;46665;51.558;-0.448;2024-03-25T06:11:22;99794.16;;;6.55;100.00
60832;BME280;46665;51.558;-0.448;2024-03-25T06:14:06;99801.69;;;6.58;100.00
60832;BME280;46665;51.558;-0.448;2024-03-25T06:16:51;99800.34;;;6.56;100.00
60832;BME280;46665;51.558;-0.448;2024-03-25T06:19:35;99798.72;;;6.60;100.00
60832;BME280;46665;51.558;-0.448;2024-03-25T06:22:19;99799.28;;;6.62;100.00
60832;BME280;46665;51.558;-0.448;2024-03-25T06:25:03;99786.56;;;6.62;100.00
60832;BME280;46665;51.558;-0.448;2024-03-25T06:27:47;99791.94;;;6.67;100.00
60832;BME280;46665;51.558;-0.448;2024-03-25T06:30:31;99792.22;;;6.66;100.00
60832;BME280;46665;51.558;-0.448;2024-03-25T06:33:34;99789.78;;;6.69;100.00
60832;BME280;46665;51.558;-0.448;2024-03-25T06:36:37;99776.53;;;6.68;100.00
60832;BME280;46665;51.558;-0.448;2024-03-25T06:39:21;99773.28;;;6.76;100.00
60832;BME280;46665;51.558;-0.448;2024-03-25T06:42:05;99770.53;;;6.81;100.00
60832;BME280;46665;51.558;-0.448;2024-03-25T06:44:49;99768.09;;;6.85;100.00
60832;BME280;46665;51.558;-0.448;2024-03-25T06:47:34;99762.91;;;6.88;100.00
60832;BME280;46665;51.558;-0.448;2024-03-25T06:50:18;99756.16;;;6.91;100.00
60832;BME280;46665;51.558;-0.448;2024-03-25T06:53:02;99750.72;;;6.96;100.00
60832;BME280;46665;51.558;-0.448;2024-03-25T06:58:36;99756.91;;;7.07;100.00
60832;BME280;46665;51.558;-0.448;2024-03-25T07:01:20;99761.75;;;7.10;100.00
60832;BME280;46665;51.558;-0.448;2024-03-25T07:04:04;99756.28;;;7.15;100.00
60832;BME280;46665;51.558;-0.448;2024-03-25T07:06:48;99761.94;;;7.19;100.00
60832;BME280;46665;51.558;-0.448;2024-03-25T07:09:32;99769.53;;;7.22;100.00
60832;BME280;46665;51.558;-0.448;2024-03-25T07:12:16;99771.13;;;7.23;100.00
60832;BME280;46665;51.558;-0.448;2024-03-25T07:14:59;99763.81;;;7.23;100.00
60832;BME280;46665;51.558;-0.448;2024-03-25T07:17:43;99764.09;;;7.27;100.00
60832;BME280;46665;51.558;-0.448;2024-03-25T07:20:27;99755.94;;;7.32;100.00
60832;BME280;46665;51.558;-0.448;2024-03-25T07:23:11;99758.03;;;7.40;100.00
60832;BME280;46665;51.558;-0.448;2024-03-25T07:25:55;99744.78;;;7.38;100.00
60832;BME280;46665;51.558;-0.448;2024-03-25T07:28:39;99752.28;;;7.47;100.00
60832;BME280;46665;51.558;-0.448;2024-03-25T07:31:23;99749.25;;;7.53;100.00
60832;BME280;46665;51.558;-0.448;2024-03-25T07:34:07;99751.97;;;7.53;100.00
60832;BME280;46665;51.558;-0.448;2024-03-25T07:36:55;99744.88;;;7.63;100.00
60832;BME280;46665;51.558;-0.448;2024-03-25T07:39:39;99747.75;;;7.71;100.00
60832;BME280;46665;51.558;-0.448;2024-03-25T07:42:23;99756.16;;;7.75;100.00
60832;BME280;46665;51.558;-0.448;2024-03-25T07:45:07;99748.81;;;7.75;100.00
60832;BME280;46665;51.558;-0.448;2024-03-25T07:47:52;99756.38;;;7.78;100.00
60832;BME280;46665;51.558;-0.448;2024-03-25T07:50:36;99748.88;;;7.70;100.00
60832;BME280;46665;51.558;-0.448;2024-03-25T07:53:19;99743.97;;;7.72;100.00
60832;BME280;46665;51.558;-0.448;2024-03-25T07:56:04;99739.06;;;7.74;100.00
60832;BME280;46665;51.558;-0.448;2024-03-25T07:58:48;99736.88;;;7.76;100.00
60832;BME280;46665;51.558;-0.448;2024-03-25T08:01:32;99733.09;;;7.77;100.00
60832;BME280;46665;51.558;-0.448;2024-03-25T08:04:16;99728.66;;;7.87;100.00
60832;BME280;46665;51.558;-0.448;2024-03-25T08:07:00;99725.44;;;7.85;100.00
60832;BME280;46665;51.558;-0.448;2024-03-25T08:09:44;99729.38;;;7.97;100.00
60832;BME280;46665;51.558;-0.448;2024-03-25T08:12:28;99726.66;;;7.97;100.00
60832;BME280;46665;51.558;-0.448;2024-03-25T08:15:12;99722.56;;;8.00;100.00
60832;BME280;46665;51.558;-0.448;2024-03-25T08:17:57;99722.81;;;8.03;100.00
60832;BME280;46665;51.558;-0.448;2024-03-25T08:20:41;99719.59;;;8.01;100.00
60832;BME280;46665;51.558;-0.448;2024-03-25T08:23:25;99705.53;;;7.99;100.00
60832;BME280;46665;51.558;-0.448;2024-03-25T08:26:08;99703.53;;;8.10;100.00
60832;BME280;46665;51.558;-0.448;2024-03-25T08:28:53;99693.38;;;8.21;100.00
60832;BME280;46665;51.558;-0.448;2024-03-25T08:31:37;99698.44;;;8.28;100.00
60832;BME280;46665;51.558;-0.448;2024-03-25T08:34:21;99684.59;;;8.29;100.00
60832;BME280;46665;51.558;-0.448;2024-03-25T08:37:04;99685.59;;;8.38;100.00
60832;BME280;46665;51.558;-0.448;2024-03-25T08:39:48;99678.59;;;8.32;100.00
60832;BME280;46665;51.558;-0.448;2024-03-25T08:42:32;99681.41;;;8.51;100.00
60832;BME280;46665;51.558;-0.448;2024-03-25T08:45:16;99681.84;;;8.58;100.00
60832;BME280;46665;51.558;-0.448;2024-03-25T08:48:00;99669.09;;;8.59;100.00
60832;BME280;46665;51.558;-0.448;2024-03-25T08:50:45;99677.16;;;8.64;100.00
60832;BME280;46665;51.558;-0.448;2024-03-25T08:53:28;99669.03;;;8.64;100.00
60832;BME280;46665;51.558;-0.448;2024-03-25T08:56:12;99676.44;;;8.58;100.00
60832;BME280;46665;51.558;-0.448;2024-03-25T08:58:56;99672.25;;;8.66;100.00
60832;BME280;46665;51.558;-0.448;2024-03-25T09:01:41;99666.53;;;8.67;100.00
60832;BME280;46665;51.558;-0.448;2024-03-25T09:04:25;99661.03;;;8.73;100.00
60832;BME280;46665;51.558;-0.448;2024-03-25T09:07:09;99664.13;;;8.66;100.00
60832;BME280;46665;51.558;-0.448;2024-03-25T09:09:53;99657.00;;;8.70;100.00
60832;BME280;46665;51.558;-0.448;2024-03-25T09:12:56;99657.28;;;8.87;100.00
60832;BME280;46665;51.558;-0.448;2024-03-25T09:15:39;99657.28;;;8.87;100.00
60832;BME280;46665;51.558;-0.448;2024-03-25T09:18:23;99658.09;;;8.88;100.00
60832;BME280;46665;51.558;-0.448;2024-03-25T09:21:07;99660.69;;;8.79;100.00
60832;BME280;46665;51.558;-0.448;2024-03-25T09:23:51;99656.25;;;8.83;100.00
60832;BME280;46665;51.558;-0.448;2024-03-25T09:26:35;99652.91;;;8.73;100.00
60832;BME280;46665;51.558;-0.448;2024-03-25T09:29:19;99648.13;;;8.83;100.00
60832;BME280;46665;51.558;-0.448;2024-03-25T09:32:03;99651.16;;;8.82;100.00
60832;BME280;46665;51.558;-0.448;2024-03-25T09:34:47;99642.69;;;8.83;100.00
60832;BME280;46665;51.558;-0.448;2024-03-25T09:37:34;99646.09;;;8.94;100.00
60832;BME280;46665;51.558;-0.448;2024-03-25T09:40:18;99644.47;;;8.93;100.00
60832;BME280;46665;51.558;-0.448;2024-03-25T09:43:03;99641.63;;;8.84;100.00
60832;BME280;46665;51.558;-0.448;2024-03-25T09:45:48;99648.13;;;8.83;100.00
60832;BME280;46665;51.558;-0.448;2024-03-25T09:48:33;99641.63;;;8.84;100.00
60832;BME280;46665;51.558;-0.448;2024-03-25T09:51:18;99643.09;;;8.77;100.00
60832;BME280;46665;51.558;-0.448;2024-03-25T09:54:02;99634.28;;;8.66;100.00
60832;BME280;46665;51.558;-0.448;2024-03-25T09:56:49;99626.28;;;8.75;100.00
60832;BME280;46665;51.558;-0.448;2024-03-25T09:59:33;99631.72;;;8.75;100.00
60832;BME280;46665;51.558;-0.448;2024-03-25T10:02:17;99630.75;;;8.84;100.00
60832;BME280;46665;51.558;-0.448;2024-03-25T10:05:01;99620.72;;;8.85;100.00
60832;BME280;46665;51.558;-0.448;2024-03-25T10:07:46;99621.16;;;8.92;100.00
60832;BME280;46665;51.558;-0.448;2024-03-25T10:10:30;99625.97;;;8.95;100.00
60832;BME280;46665;51.558;-0.448;2024-03-25T10:13:15;99627.28;;;8.98;100.00
60832;BME280;46665;51.558;-0.448;2024-03-25T10:15:59;99628.09;;;8.98;100.00
60832;BME280;46665;51.558;-0.448;2024-03-25T10:18:43;99630.44;;;9.05;100.00
60832;BME280;46665;51.558;-0.448;2024-03-25T10:21:27;99624.78;;;9.01;95.94
60832;BME280;46665;51.558;-0.448;2024-03-25T10:24:12;99631.53;;;9.04;93.19
60832;BME280;46665;51.558;-0.448;2024-03-25T10:27:00;99632.38;;;9.04;94.95
60832;BME280;46665;51.558;-0.448;2024-03-25T10:29:43;99629.56;;;9.09;93.65
60832;BME280;46665;51.558;-0.448;2024-03-25T10:32:27;99618.13;;;9.13;94.99
60832;BME280;46665;51.558;-0.448;2024-03-25T10:35:12;99610.56;;;9.09;92.33
60832;BME280;46665;51.558;-0.448;2024-03-25T10:38:02;99615.13;;;9.14;92.94
60832;BME280;46665;51.558;-0.448;2024-03-25T10:40:49;99622.25;;;9.24;93.68
60832;BME280;46665;51.558;-0.448;2024-03-25T10:43:37;99612.09;;;9.16;91.79
60832;BME280;46665;51.558;-0.448;2024-03-25T10:46:22;99619.94;;;9.17;93.37
60832;BME280;46665;51.558;-0.448;2024-03-25T10:49:16;99616.63;;;9.20;93.04
60832;BME280;46665;51.558;-0.448;2024-03-25T10:52:06;99610.59;;;9.23;94.40
60832;BME280;46665;51.558;-0.448;2024-03-25T10:54:51;99607.47;;;9.16;93.85
60832;BME280;46665;51.558;-0.448;2024-03-25T10:57:35;99594.81;;;9.25;95.42
60832;BME280;46665;51.558;-0.448;2024-03-25T11:00:22;99590.44;;;9.29;97.85
60832;BME280;46665;51.558;-0.448;2024-03-25T11:03:06;99582.16;;;9.21;99.86
60832;BME280;46665;51.558;-0.448;2024-03-25T11:05:52;99586.09;;;9.28;100.00
60832;BME280;46665;51.558;-0.448;2024-03-25T11:08:36;99574.25;;;9.38;99.93
60832;BME280;46665;51.558;-0.448;2024-03-25T11:11:20;99571.25;;;9.40;97.30
60832;BME280;46665;51.558;-0.448;2024-03-25T11:14:04;99563.38;;;9.52;98.24
60832;BME280;46665;51.558;-0.448;2024-03-25T11:16:55;99563.81;;;9.59;95.67
60832;BME280;46665;51.558;-0.448;2024-03-25T11:19:38;99555.34;;;9.74;96.75
60832;BME280;46665;51.558;-0.448;2024-03-25T11:22:25;99551.63;;;9.84;94.90
60832;BME280;46665;51.558;-0.448;2024-03-25T11:25:11;99557.97;;;9.93;95.16
60832;BME280;46665;51.558;-0.448;2024-03-25T11:27:55;99554.84;;;10.00;93.81
60832;BME280;46665;51.558;-0.448;2024-03-25T11:30:40;99553.63;;;10.06;92.88
60832;BME280;46665;51.558;-0.448;2024-03-25T11:33:25;99546.38;;;10.15;92.97
60832;BME280;46665;51.558;-0.448;2024-03-25T11:36:09;99540.72;;;10.26;91.37
60832;BME280;46665;51.558;-0.448;2024-03-25T11:39:03;99534.69;;;10.29;89.42
60832;BME280;46665;51.558;-0.448;2024-03-25T11:41:48;99525.63;;;10.19;87.22
60832;BME280;46665;51.558;-0.448;2024-03-25T11:44:37;99514.53;;;10.30;89.68
60832;BME280;46665;51.558;-0.448;2024-03-25T11:47:22;99511.81;;;10.30;87.04
60832;BME280;46665;51.558;-0.448;2024-03-25T11:50:12;99509.50;;;10.37;87.47
60832;BME280;46665;51.558;-0.448;2024-03-25T11:52:56;99494.59;;;10.34;86.38
60832;BME280;46665;51.558;-0.448;2024-03-25T11:55:45;99494.41;;;10.31;86.86
60832;BME280;46665;51.558;-0.448;2024-03-25T11:58:29;99486.66;;;10.24;86.54
60832;BME280;46665;51.558;-0.448;2024-03-25T12:01:13;99476.19;;;10.31;86.92
60832;BME280;46665;51.558;-0.448;2024-03-25T12:03:57;99479.47;;;10.42;87.71
60832;BME280;46665;51.558;-0.448;2024-03-25T12:06:41;99471.41;;;10.37;85.76
60832;BME280;46665;51.558;-0.448;2024-03-25T12:09:25;99459.91;;;10.40;87.15
60832;BME280;46665;51.558;-0.448;2024-03-25T12:12:28;99457.72;;;10.42;85.88
60832;BME280;46665;51.558;-0.448;2024-03-25T12:15:12;99442.69;;;10.45;85.46
60832;BME280;46665;51.558;-0.448;2024-03-25T12:17:56;99446.44;;;10.57;85.75
60832;BME280;46665;51.558;-0.448;2024-03-25T12:20:41;99447.94;;;10.63;86.11
60832;BME280;46665;51.558;-0.448;2024-03-25T12:23:29;99425.69;;;10.61;85.22
60832;BME280;46665;51.558;-0.448;2024-03-25T12:26:13;99426.97;;;10.64;84.21
60832;BME280;46665;51.558;-0.448;2024-03-25T12:28:58;99429.56;;;10.69;83.31
60832;BME280;46665;51.558;-0.448;2024-03-25T12:31:42;99413.47;;;10.81;84.23
60832;BME280;46665;51.558;-0.448;2024-03-25T12:34:26;99416.84;;;10.87;83.11
60832;BME280;46665;51.558;-0.448;2024-03-25T12:37:15;99412.88;;;10.93;82.91
60832;BME280;46665;51.558;-0.448;2024-03-25T12:39:59;99406.13;;;10.91;82.77
60832;BME280;46665;51.558;-0.448;2024-03-25T12:42:43;99403.75;;;10.89;83.07
60832;BME280;46665;51.558;-0.448;2024-03-25T12:45:27;99400.19;;;10.89;82.96
60832;BME280;46665;51.558;-0.448;2024-03-25T12:48:12;99400.84;;;10.85;83.74
60832;BME280;46665;51.558;-0.448;2024-03-25T12:50:56;99392.16;;;10.75;79.84
60832;BME280;46665;51.558;-0.448;2024-03-25T12:53:40;99377.41;;;10.76;79.13
60832;BME280;46665;51.558;-0.448;2024-03-25T12:56:24;99370.41;;;10.83;80.85
60832;BME280;46665;51.558;-0.448;2024-03-25T12:59:08;99376.34;;;10.85;81.15
60832;BME280;46665;51.558;-0.448;2024-03-25T13:01:52;99357.78;;;10.88;82.63
60832;BME280;46665;51.558;-0.448;2024-03-25T13:04:36;99363.09;;;10.93;81.25
60832;BME280;46665;51.558;-0.448;2024-03-25T13:07:26;99356.13;;;11.09;80.41
60832;BME280;46665;51.558;-0.448;2024-03-25T13:10:10;99358.84;;;11.18;76.17
60832;BME280;46665;51.558;-0.448;2024-03-25T13:12:55;99345.53;;;11.07;74.09
60832;BME280;46665;51.558;-0.448;2024-03-25T13:15:39;99351.63;;;11.13;74.38
60832;BME280;46665;51.558;-0.448;2024-03-25T13:18:23;99339.78;;;11.18;74.02
60832;BME280;46665;51.558;-0.448;2024-03-25T13:21:07;99335.94;;;11.10;74.62
60832;BME280;46665;51.558;-0.448;2024-03-25T13:23:52;99351.47;;;11.10;73.32
60832;BME280;46665;51.558;-0.448;2024-03-25T13:26:36;99347.94;;;11.09;72.16
60832;BME280;46665;51.558;-0.448;2024-03-25T13:29:19;99333.50;;;11.09;73.71
60832;BME280;46665;51.558;-0.448;2024-03-25T13:32:04;99335.94;;;11.19;73.48
60832;BME280;46665;51.558;-0.448;2024-03-25T13:34:47;99343.50;;;11.22;71.16
60832;BME280;46665;51.558;-0.448;2024-03-25T13:37:31;99335.47;;;11.25;69.87
60832;BME280;46665;51.558;-0.448;2024-03-25T13:40:15;99334.22;;;11.40;70.91
60832;BME280;46665;51.558;-0.448;2024-03-25T13:42:59;99340.31;;;11.46;70.36
60832;BME280;46665;51.558;-0.448;2024-03-25T13:45:49;99327.66;;;11.41;69.24
60832;BME280;46665;51.558;-0.448;2024-03-25T13:48:34;99319.31;;;11.38;67.57
60832;BME280;46665;51.558;-0.448;2024-03-25T13:51:18;99313.41;;;11.44;68.13
60832;BME280;46665;51.558;-0.448;2024-03-25T13:54:02;99310.22;;;11.60;68.83
60832;BME280;46665;51.558;-0.448;2024-03-25T13:56:46;99308.28;;;11.69;67.58
60832;BME280;46665;51.558;-0.448;2024-03-25T13:59:30;99307.94;;;11.62;65.95
60832;BME280;46665;51.558;-0.448;2024-03-25T14:02:14;99311.81;;;11.61;66.02
60832;BME280;46665;51.558;-0.448;2024-03-25T14:04:58;99299.31;;;11.51;65.49
60832;BME280;46665;51.558;-0.448;2024-03-25T14:07:42;99294.50;;;11.48;65.61
60832;BME280;46665;51.558;-0.448;2024-03-25T14:10:26;99301.88;;;11.47;66.15
60832;BME280;46665;51.558;-0.448;2024-03-25T14:13:10;99300.09;;;11.43;66.10
60832;BME280;46665;51.558;-0.448;2024-03-25T14:15:54;99293.06;;;11.50;66.38
60832;BME280;46665;51.558;-0.448;2024-03-25T14:18:37;99293.88;;;11.60;65.52
60832;BME280;46665;51.558;-0.448;2024-03-25T14:21:22;99289.38;;;11.64;65.29
60832;BME280;46665;51.558;-0.448;2024-03-25T14:24:06;99279.25;;;11.64;62.64